sensor_id;sensor_type;location;lat;lon;timestamp;P1;durP1;ratioP1;P2;durP2;ratioP2
74180;SDS011;62544;50.826;14.354;2023-02-02T00:02:41;6.99;;;1.01;;
74180;SDS011;62544;50.826;14.354;2023-02-02T00:06:57;6.99;;;1.01;;
74180;SDS011;62544;50.826;14.354;2023-02-02T00:11:13;5.79;;;0.97;;
74180;SDS011;62544;50.826;14.354;2023-02-02T00:15:28;5.79;;;0.97;;
74180;SDS011;62544;50.826;14.354;2023-02-02T00:19:44;5.14;;;1.01;;
74180;SDS011;62544;50.826;14.354;2023-02-02T00:24:00;5.14;;;1.01;;
74180;SDS011;62544;50.826;14.354;2023-02-02T00:28:16;4.83;;;0.81;;
74180;SDS011;62544;50.826;14.354;2023-02-02T00:32:32;4.83;;;0.81;;
74180;SDS011;62544;50.826;14.354;2023-02-02T00:36:49;4.83;;;0.81;;
74180;SDS011;62544;50.826;14.354;2023-02-02T00:41:04;6.46;;;1.04;;
74180;SDS011;62544;50.826;14.354;2023-02-02T00:45:20;6.46;;;1.04;;
74180;SDS011;62544;50.826;14.354;2023-02-02T00:49:36;5.74;;;1.11;;
74180;SDS011;62544;50.826;14.354;2023-02-02T00:53:52;5.74;;;1.11;;
74180;SDS011;62544;50.826;14.354;2023-02-02T00:58:08;6.91;;;0.93;;
74180;SDS011;62544;50.826;14.354;2023-02-02T01:02:24;6.91;;;0.93;;
74180;SDS011;62544;50.826;14.354;2023-02-02T01:06:40;6.91;;;0.93;;
74180;SDS011;62544;50.826;14.354;2023-02-02T01:10:58;7.09;;;1.32;;
74180;SDS011;62544;50.826;14.354;2023-02-02T01:15:13;7.09;;;1.32;;
74180;SDS011;62544;50.826;14.354;2023-02-02T01:19:28;6.32;;;1.26;;
74180;SDS011;62544;50.826;14.354;2023-02-02T01:23:44;6.32;;;1.26;;
74180;SDS011;62544;50.826;14.354;2023-02-02T01:28:00;9.45;;;1.39;;
74180;SDS011;62544;50.826;14.354;2023-02-02T01:32:16;9.45;;;1.39;;
74180;SDS011;62544;50.826;14.354;2023-02-02T01:36:32;9.45;;;1.39;;
74180;SDS011;62544;50.826;14.354;2023-02-02T01:40:52;7.96;;;1.21;;
74180;SDS011;62544;50.826;14.354;2023-02-02T01:49:20;10.29;;;1.41;;
74180;SDS011;62544;50.826;14.354;2023-02-02T01:53:36;10.29;;;1.41;;
74180;SDS011;62544;50.826;14.354;2023-02-02T01:57:56;5.88;;;1.20;;
74180;SDS011;62544;50.826;14.354;2023-02-02T02:02:09;5.88;;;1.20;;
74180;SDS011;62544;50.826;14.354;2023-02-02T02:06:24;5.88;;;1.20;;
74180;SDS011;62544;50.826;14.354;2023-02-02T02:10:40;8.71;;;1.52;;
74180;SDS011;62544;50.826;14.354;2023-02-02T02:14:56;8.71;;;1.52;;
74180;SDS011;62544;50.826;14.354;2023-02-02T02:40:36;12.06;;;1.93;;
74180;SDS011;62544;50.826;14.354;2023-02-02T02:44:48;12.06;;;1.93;;
74180;SDS011;62544;50.826;14.354;2023-02-02T02:49:06;11.04;;;1.77;;
74180;SDS011;62544;50.826;14.354;2023-02-02T02:53:20;11.04;;;1.77;;
74180;SDS011;62544;50.826;14.354;2023-02-02T03:06:13;10.39;;;1.54;;
74180;SDS011;62544;50.826;14.354;2023-02-02T03:10:25;12.44;;;2.23;;
74180;SDS011;62544;50.826;14.354;2023-02-02T03:14:40;12.44;;;2.23;;
74180;SDS011;62544;50.826;14.354;2023-02-02T03:18:56;8.08;;;1.51;;
74180;SDS011;62544;50.826;14.354;2023-02-02T03:23:12;8.08;;;1.51;;
74180;SDS011;62544;50.826;14.354;2023-02-02T03:27:28;8.08;;;1.51;;
74180;SDS011;62544;50.826;14.354;2023-02-02T03:31:45;8.08;;;1.51;;
74180;SDS011;62544;50.826;14.354;2023-02-02T03:36:00;8.08;;;1.51;;
74180;SDS011;62544;50.826;14.354;2023-02-02T03:40:16;11.20;;;1.67;;
74180;SDS011;62544;50.826;14.354;2023-02-02T03:44:32;11.20;;;1.67;;
74180;SDS011;62544;50.826;14.354;2023-02-02T03:48:48;11.20;;;1.67;;
74180;SDS011;62544;50.826;14.354;2023-02-02T03:53:04;11.20;;;1.67;;
74180;SDS011;62544;50.826;14.354;2023-02-02T03:57:20;11.20;;;1.67;;
74180;SDS011;62544;50.826;14.354;2023-02-02T04:01:36;11.20;;;1.67;;
74180;SDS011;62544;50.826;14.354;2023-02-02T04:05:52;11.20;;;1.67;;
74180;SDS011;62544;50.826;14.354;2023-02-02T04:10:09;6.48;;;1.41;;
74180;SDS011;62544;50.826;14.354;2023-02-02T04:14:24;6.48;;;1.41;;
74180;SDS011;62544;50.826;14.354;2023-02-02T04:18:40;6.48;;;1.41;;
74180;SDS011;62544;50.826;14.354;2023-02-02T04:22:56;6.48;;;1.41;;
74180;SDS011;62544;50.826;14.354;2023-02-02T04:27:12;12.22;;;1.78;;
74180;SDS011;62544;50.826;14.354;2023-02-02T04:31:28;12.22;;;1.78;;
74180;SDS011;62544;50.826;14.354;2023-02-02T04:35:44;12.22;;;1.78;;
74180;SDS011;62544;50.826;14.354;2023-02-02T04:40:00;12.22;;;1.78;;
74180;SDS011;62544;50.826;14.354;2023-02-02T04:44:16;12.22;;;1.78;;
74180;SDS011;62544;50.826;14.354;2023-02-02T04:48:33;12.22;;;1.78;;
74180;SDS011;62544;50.826;14.354;2023-02-02T04:52:48;12.22;;;1.78;;
74180;SDS011;62544;50.826;14.354;2023-02-02T04:57:04;12.22;;;1.78;;
74180;SDS011;62544;50.826;14.354;2023-02-02T05:01:20;12.22;;;1.78;;
74180;SDS011;62544;50.826;14.354;2023-02-02T05:05:36;12.22;;;1.78;;
74180;SDS011;62544;50.826;14.354;2023-02-02T05:09:52;9.64;;;1.47;;
74180;SDS011;62544;50.826;14.354;2023-02-02T05:14:08;9.64;;;1.47;;
74180;SDS011;62544;50.826;14.354;2023-02-02T05:18:24;9.64;;;1.47;;
74180;SDS011;62544;50.826;14.354;2023-02-02T05:22:40;9.64;;;1.47;;
74180;SDS011;62544;50.826;14.354;2023-02-02T05:26:56;9.64;;;1.47;;
74180;SDS011;62544;50.826;14.354;2023-02-02T05:31:12;9.64;;;1.47;;
74180;SDS011;62544;50.826;14.354;2023-02-02T05:35:28;9.64;;;1.47;;
74180;SDS011;62544;50.826;14.354;2023-02-02T05:39:44;7.54;;;1.07;;
74180;SDS011;62544;50.826;14.354;2023-02-02T05:44:00;7.54;;;1.07;;
74180;SDS011;62544;50.826;14.354;2023-02-02T05:48:16;10.49;;;1.59;;
74180;SDS011;62544;50.826;14.354;2023-02-02T05:52:32;10.49;;;1.59;;
74180;SDS011;62544;50.826;14.354;2023-02-02T05:56:49;10.49;;;1.59;;
74180;SDS011;62544;50.826;14.354;2023-02-02T06:01:04;10.49;;;1.59;;
74180;SDS011;62544;50.826;14.354;2023-02-02T06:05:20;10.49;;;1.59;;
74180;SDS011;62544;50.826;14.354;2023-02-02T06:09:36;10.49;;;1.59;;
74180;SDS011;62544;50.826;14.354;2023-02-02T06:13:52;10.49;;;1.59;;
74180;SDS011;62544;50.826;14.354;2023-02-02T06:18:08;10.47;;;1.68;;
74180;SDS011;62544;50.826;14.354;2023-02-02T06:22:24;10.47;;;1.68;;
74180;SDS011;62544;50.826;14.354;2023-02-02T06:26:40;10.47;;;1.68;;
74180;SDS011;62544;50.826;14.354;2023-02-02T06:31:01;10.47;;;1.68;;
74180;SDS011;62544;50.826;14.354;2023-02-02T06:35:12;10.47;;;1.68;;
74180;SDS011;62544;50.826;14.354;2023-02-02T06:39:28;8.80;;;1.17;;
74180;SDS011;62544;50.826;14.354;2023-02-02T06:43:44;8.80;;;1.17;;
74180;SDS011;62544;50.826;14.354;2023-02-02T06:48:00;8.80;;;1.17;;
74180;SDS011;62544;50.826;14.354;2023-02-02T06:52:17;8.80;;;1.17;;
74180;SDS011;62544;50.826;14.354;2023-02-02T06:56:32;8.80;;;1.17;;
74180;SDS011;62544;50.826;14.354;2023-02-02T07:00:48;7.41;;;1.02;;
74180;SDS011;62544;50.826;14.354;2023-02-02T07:05:04;7.41;;;1.02;;
74180;SDS011;62544;50.826;14.354;2023-02-02T07:09:20;7.41;;;1.02;;
74180;SDS011;62544;50.826;14.354;2023-02-02T07:13:36;7.41;;;1.02;;
74180;SDS011;62544;50.826;14.354;2023-02-02T07:17:53;7.96;;;1.35;;
74180;SDS011;62544;50.826;14.354;2023-02-02T07:22:08;7.96;;;1.35;;
74180;SDS011;62544;50.826;14.354;2023-02-02T07:26:24;7.96;;;1.35;;
74180;SDS011;62544;50.826;14.354;2023-02-02T07:30:40;8.08;;;1.29;;
74180;SDS011;62544;50.826;14.354;2023-02-02T07:34:56;8.08;;;1.29;;
74180;SDS011;62544;50.826;14.354;2023-02-02T07:39:12;8.12;;;1.41;;
74180;SDS011;62544;50.826;14.354;2023-02-02T07:43:28;8.12;;;1.41;;
74180;SDS011;62544;50.826;14.354;2023-02-02T07:47:44;9.48;;;1.30;;
74180;SDS011;62544;50.826;14.354;2023-02-02T07:52:00;9.48;;;1.30;;
74180;SDS011;62544;50.826;14.354;2023-02-02T07:56:17;9.48;;;1.30;;
74180;SDS011;62544;50.826;14.354;2023-02-02T08:00:32;8.50;;;1.11;;
74180;SDS011;62544;50.826;14.354;2023-02-02T08:04:48;8.50;;;1.11;;
74180;SDS011;62544;50.826;14.354;2023-02-02T08:09:05;6.95;;;1.07;;
74180;SDS011;62544;50.826;14.354;2023-02-02T08:13:20;6.95;;;1.07;;
74180;SDS011;62544;50.826;14.354;2023-02-02T08:17:36;8.65;;;1.52;;
74180;SDS011;62544;50.826;14.354;2023-02-02T08:21:52;8.65;;;1.52;;
74180;SDS011;62544;50.826;14.354;2023-02-02T08:26:12;8.65;;;1.52;;
74180;SDS011;62544;50.826;14.354;2023-02-02T08:30:24;8.65;;;1.52;;
74180;SDS011;62544;50.826;14.354;2023-02-02T08:34:40;8.65;;;1.52;;
74180;SDS011;62544;50.826;14.354;2023-02-02T08:38:59;8.65;;;1.52;;
74180;SDS011;62544;50.826;14.354;2023-02-02T08:43:12;8.65;;;1.52;;
74180;SDS011;62544;50.826;14.354;2023-02-02T08:47:28;10.11;;;2.33;;
74180;SDS011;62544;50.826;14.354;2023-02-02T08:51:44;10.11;;;2.33;;
74180;SDS011;62544;50.826;14.354;2023-02-02T08:56:01;10.11;;;2.33;;
74180;SDS011;62544;50.826;14.354;2023-02-02T09:00:16;8.61;;;1.32;;
74180;SDS011;62544;50.826;14.354;2023-02-02T09:04:32;8.61;;;1.32;;
74180;SDS011;62544;50.826;14.354;2023-02-02T09:08:48;8.61;;;1.32;;
74180;SDS011;62544;50.826;14.354;2023-02-02T09:13:04;8.61;;;1.32;;
74180;SDS011;62544;50.826;14.354;2023-02-02T09:17:20;9.08;;;1.73;;
74180;SDS011;62544;50.826;14.354;2023-02-02T09:21:38;9.08;;;1.73;;
74180;SDS011;62544;50.826;14.354;2023-02-02T09:25:52;9.08;;;1.73;;
74180;SDS011;62544;50.826;14.354;2023-02-02T09:30:08;9.08;;;1.73;;
74180;SDS011;62544;50.826;14.354;2023-02-02T09:34:24;9.08;;;1.73;;
74180;SDS011;62544;50.826;14.354;2023-02-02T09:38:40;10.65;;;1.77;;
74180;SDS011;62544;50.826;14.354;2023-02-02T09:51:29;8.97;;;2.66;;
74180;SDS011;62544;50.826;14.354;2023-02-02T09:55:45;8.97;;;2.66;;
74180;SDS011;62544;50.826;14.354;2023-02-02T10:00:00;8.97;;;2.66;;
74180;SDS011;62544;50.826;14.354;2023-02-02T10:08:33;8.97;;;2.66;;
74180;SDS011;62544;50.826;14.354;2023-02-02T10:17:17;8.97;;;2.66;;
74180;SDS011;62544;50.826;14.354;2023-02-02T10:21:25;5.78;;;0.93;;
74180;SDS011;62544;50.826;14.354;2023-02-02T10:25:36;5.78;;;0.93;;
74180;SDS011;62544;50.826;14.354;2023-02-02T10:29:58;5.78;;;0.93;;
74180;SDS011;62544;50.826;14.354;2023-02-02T10:42:42;5.40;;;1.34;;
74180;SDS011;62544;50.826;14.354;2023-02-02T10:46:56;5.40;;;1.34;;
74180;SDS011;62544;50.826;14.354;2023-02-02T10:51:27;5.40;;;1.34;;
74180;SDS011;62544;50.826;14.354;2023-02-02T10:55:39;5.40;;;1.34;;
74180;SDS011;62544;50.826;14.354;2023-02-02T10:59:54;5.40;;;1.34;;
74180;SDS011;62544;50.826;14.354;2023-02-02T11:04:00;5.40;;;1.34;;
74180;SDS011;62544;50.826;14.354;2023-02-02T11:08:20;5.40;;;1.34;;
74180;SDS011;62544;50.826;14.354;2023-02-02T11:12:33;5.40;;;1.34;;
74180;SDS011;62544;50.826;14.354;2023-02-02T11:16:58;5.40;;;1.34;;
74180;SDS011;62544;50.826;14.354;2023-02-02T11:21:14;5.40;;;1.34;;
74180;SDS011;62544;50.826;14.354;2023-02-02T11:25:29;5.40;;;1.34;;
74180;SDS011;62544;50.826;14.354;2023-02-02T11:29:43;6.71;;;1.07;;
74180;SDS011;62544;50.826;14.354;2023-02-02T11:33:52;6.71;;;1.07;;
74180;SDS011;62544;50.826;14.354;2023-02-02T11:38:09;2.94;;;0.76;;
74180;SDS011;62544;50.826;14.354;2023-02-02T11:42:24;2.94;;;0.76;;
74180;SDS011;62544;50.826;14.354;2023-02-02T11:46:40;2.94;;;0.76;;
74180;SDS011;62544;50.826;14.354;2023-02-02T11:50:56;2.94;;;0.76;;
74180;SDS011;62544;50.826;14.354;2023-02-02T11:55:16;2.94;;;0.76;;
74180;SDS011;62544;50.826;14.354;2023-02-02T11:59:32;2.94;;;0.76;;
74180;SDS011;62544;50.826;14.354;2023-02-02T12:03:45;2.94;;;0.76;;
74180;SDS011;62544;50.826;14.354;2023-02-02T12:08:00;4.72;;;0.94;;
74180;SDS011;62544;50.826;14.354;2023-02-02T12:25:11;4.72;;;0.94;;
74180;SDS011;62544;50.826;14.354;2023-02-02T12:55:02;9.85;;;2.14;;
74180;SDS011;62544;50.826;14.354;2023-02-02T13:03:45;10.68;;;1.65;;
74180;SDS011;62544;50.826;14.354;2023-02-02T13:07:53;10.68;;;1.65;;
74180;SDS011;62544;50.826;14.354;2023-02-02T13:12:09;10.68;;;1.65;;
74180;SDS011;62544;50.826;14.354;2023-02-02T13:16:16;10.68;;;1.65;;
74180;SDS011;62544;50.826;14.354;2023-02-02T13:20:44;10.68;;;1.65;;
74180;SDS011;62544;50.826;14.354;2023-02-02T13:24:48;10.68;;;1.65;;
74180;SDS011;62544;50.826;14.354;2023-02-02T13:29:13;7.48;;;1.95;;
74180;SDS011;62544;50.826;14.354;2023-02-02T13:33:22;7.48;;;1.95;;
74180;SDS011;62544;50.826;14.354;2023-02-02T13:37:45;12.74;;;2.27;;
74180;SDS011;62544;50.826;14.354;2023-02-02T13:41:52;12.74;;;2.27;;
74180;SDS011;62544;50.826;14.354;2023-02-02T13:50:24;10.45;;;2.21;;
74180;SDS011;62544;50.826;14.354;2023-02-02T14:07:32;10.72;;;1.87;;
74180;SDS011;62544;50.826;14.354;2023-02-02T14:11:50;10.72;;;1.87;;
74180;SDS011;62544;50.826;14.354;2023-02-02T14:16:03;10.72;;;1.87;;
74180;SDS011;62544;50.826;14.354;2023-02-02T14:28:48;9.36;;;1.92;;
74180;SDS011;62544;50.826;14.354;2023-02-02T14:33:23;9.36;;;1.92;;
74180;SDS011;62544;50.826;14.354;2023-02-02T14:50:26;7.08;;;1.20;;
74180;SDS011;62544;50.826;14.354;2023-02-02T14:54:34;7.08;;;1.20;;
74180;SDS011;62544;50.826;14.354;2023-02-02T14:58:52;7.08;;;1.20;;
74180;SDS011;62544;50.826;14.354;2023-02-02T15:03:04;7.08;;;1.20;;
74180;SDS011;62544;50.826;14.354;2023-02-02T15:11:28;7.08;;;1.20;;
74180;SDS011;62544;50.826;14.354;2023-02-02T15:15:44;7.08;;;1.20;;
74180;SDS011;62544;50.826;14.354;2023-02-02T15:24:23;0.98;;;0.53;;
74180;SDS011;62544;50.826;14.354;2023-02-02T15:28:51;7.82;;;3.47;;
74180;SDS011;62544;50.826;14.354;2023-02-02T15:32:48;7.82;;;3.47;;
74180;SDS011;62544;50.826;14.354;2023-02-02T15:37:04;7.82;;;3.47;;
74180;SDS011;62544;50.826;14.354;2023-02-02T15:41:22;7.05;;;2.71;;
74180;SDS011;62544;50.826;14.354;2023-02-02T15:45:46;7.05;;;2.71;;
74180;SDS011;62544;50.826;14.354;2023-02-02T15:49:52;7.05;;;2.71;;
74180;SDS011;62544;50.826;14.354;2023-02-02T15:54:19;7.05;;;2.71;;
74180;SDS011;62544;50.826;14.354;2023-02-02T15:58:30;5.86;;;1.33;;
74180;SDS011;62544;50.826;14.354;2023-02-02T16:02:40;5.86;;;1.33;;
74180;SDS011;62544;50.826;14.354;2023-02-02T16:06:56;5.86;;;1.33;;
74180;SDS011;62544;50.826;14.354;2023-02-02T16:11:16;9.85;;;3.43;;
74180;SDS011;62544;50.826;14.354;2023-02-02T16:15:28;9.85;;;3.43;;
74180;SDS011;62544;50.826;14.354;2023-02-02T16:19:44;9.85;;;3.43;;
74180;SDS011;62544;50.826;14.354;2023-02-02T16:24:01;9.85;;;3.43;;
74180;SDS011;62544;50.826;14.354;2023-02-02T16:28:16;15.10;;;4.83;;
74180;SDS011;62544;50.826;14.354;2023-02-02T16:32:33;15.10;;;4.83;;
74180;SDS011;62544;50.826;14.354;2023-02-02T16:37:04;15.10;;;4.83;;
74180;SDS011;62544;50.826;14.354;2023-02-02T16:41:11;15.10;;;4.83;;
74180;SDS011;62544;50.826;14.354;2023-02-02T16:45:33;15.10;;;4.83;;
74180;SDS011;62544;50.826;14.354;2023-02-02T16:49:36;3.71;;;1.11;;
74180;SDS011;62544;50.826;14.354;2023-02-02T16:54:10;3.71;;;1.11;;
74180;SDS011;62544;50.826;14.354;2023-02-02T16:58:11;4.60;;;1.87;;
74180;SDS011;62544;50.826;14.354;2023-02-02T17:02:34;4.60;;;1.87;;
74180;SDS011;62544;50.826;14.354;2023-02-02T17:06:40;4.60;;;1.87;;
74180;SDS011;62544;50.826;14.354;2023-02-02T17:11:00;6.28;;;2.63;;
74180;SDS011;62544;50.826;14.354;2023-02-02T17:19:29;5.02;;;2.53;;
74180;SDS011;62544;50.826;14.354;2023-02-02T17:23:44;5.02;;;2.53;;
74180;SDS011;62544;50.826;14.354;2023-02-02T17:28:00;5.11;;;1.93;;
74180;SDS011;62544;50.826;14.354;2023-02-02T17:32:16;5.11;;;1.93;;
74180;SDS011;62544;50.826;14.354;2023-02-02T17:36:32;5.11;;;1.93;;
74180;SDS011;62544;50.826;14.354;2023-02-02T17:40:48;5.37;;;1.65;;
74180;SDS011;62544;50.826;14.354;2023-02-02T17:45:08;5.37;;;1.65;;
74180;SDS011;62544;50.826;14.354;2023-02-02T17:49:20;6.48;;;2.31;;
74180;SDS011;62544;50.826;14.354;2023-02-02T17:53:36;6.48;;;2.31;;
74180;SDS011;62544;50.826;14.354;2023-02-02T17:57:52;5.48;;;1.53;;
74180;SDS011;62544;50.826;14.354;2023-02-02T18:02:10;5.48;;;1.53;;
74180;SDS011;62544;50.826;14.354;2023-02-02T18:06:24;5.48;;;1.53;;
74180;SDS011;62544;50.826;14.354;2023-02-02T18:10:41;7.31;;;2.29;;
74180;SDS011;62544;50.826;14.354;2023-02-02T18:14:56;7.31;;;2.29;;
74180;SDS011;62544;50.826;14.354;2023-02-02T18:19:12;11.55;;;4.73;;
74180;SDS011;62544;50.826;14.354;2023-02-02T18:23:28;11.55;;;4.73;;
74180;SDS011;62544;50.826;14.354;2023-02-02T18:27:44;12.96;;;5.38;;
74180;SDS011;62544;50.826;14.354;2023-02-02T18:32:00;12.96;;;5.38;;
74180;SDS011;62544;50.826;14.354;2023-02-02T18:36:17;12.96;;;5.38;;
74180;SDS011;62544;50.826;14.354;2023-02-02T18:40:35;12.69;;;5.76;;
74180;SDS011;62544;50.826;14.354;2023-02-02T18:44:48;12.69;;;5.76;;
74180;SDS011;62544;50.826;14.354;2023-02-02T18:49:04;16.70;;;5.11;;
74180;SDS011;62544;50.826;14.354;2023-02-02T18:53:20;16.70;;;5.11;;
74180;SDS011;62544;50.826;14.354;2023-02-02T18:57:36;21.84;;;11.39;;
74180;SDS011;62544;50.826;14.354;2023-02-02T19:01:52;21.84;;;11.39;;
74180;SDS011;62544;50.826;14.354;2023-02-02T19:06:08;21.84;;;11.39;;
74180;SDS011;62544;50.826;14.354;2023-02-02T19:10:25;18.90;;;7.08;;
74180;SDS011;62544;50.826;14.354;2023-02-02T19:14:40;18.90;;;7.08;;
74180;SDS011;62544;50.826;14.354;2023-02-02T19:18:57;12.85;;;4.83;;
74180;SDS011;62544;50.826;14.354;2023-02-02T19:23:13;12.85;;;4.83;;
74180;SDS011;62544;50.826;14.354;2023-02-02T19:27:31;7.45;;;2.49;;
74180;SDS011;62544;50.826;14.354;2023-02-02T19:31:44;7.45;;;2.49;;
74180;SDS011;62544;50.826;14.354;2023-02-02T19:36:04;7.45;;;2.49;;
74180;SDS011;62544;50.826;14.354;2023-02-02T19:40:22;12.21;;;5.10;;
74180;SDS011;62544;50.826;14.354;2023-02-02T19:44:33;12.21;;;5.10;;
74180;SDS011;62544;50.826;14.354;2023-02-02T19:48:50;12.21;;;5.10;;
74180;SDS011;62544;50.826;14.354;2023-02-02T19:53:11;12.21;;;5.10;;
74180;SDS011;62544;50.826;14.354;2023-02-02T19:57:33;12.76;;;5.33;;
74180;SDS011;62544;50.826;14.354;2023-02-02T20:01:36;12.76;;;5.33;;
74180;SDS011;62544;50.826;14.354;2023-02-02T20:05:52;12.76;;;5.33;;
74180;SDS011;62544;50.826;14.354;2023-02-02T20:14:25;11.87;;;6.56;;
74180;SDS011;62544;50.826;14.354;2023-02-02T20:18:41;16.97;;;7.18;;
74180;SDS011;62544;50.826;14.354;2023-02-02T20:22:57;16.97;;;7.18;;
74180;SDS011;62544;50.826;14.354;2023-02-02T20:27:15;20.26;;;8.38;;
74180;SDS011;62544;50.826;14.354;2023-02-02T20:31:35;20.26;;;8.38;;
74180;SDS011;62544;50.826;14.354;2023-02-02T20:35:44;20.26;;;8.38;;
74180;SDS011;62544;50.826;14.354;2023-02-02T20:40:02;14.94;;;7.63;;
74180;SDS011;62544;50.826;14.354;2023-02-02T20:44:16;14.94;;;7.63;;
74180;SDS011;62544;50.826;14.354;2023-02-02T20:48:35;17.68;;;7.75;;
74180;SDS011;62544;50.826;14.354;2023-02-02T20:52:48;17.68;;;7.75;;
74180;SDS011;62544;50.826;14.354;2023-02-02T20:57:04;17.68;;;7.75;;
74180;SDS011;62544;50.826;14.354;2023-02-02T21:01:20;18.41;;;8.20;;
74180;SDS011;62544;50.826;14.354;2023-02-02T21:05:36;18.41;;;8.20;;
74180;SDS011;62544;50.826;14.354;2023-02-02T21:09:52;13.47;;;6.83;;
74180;SDS011;62544;50.826;14.354;2023-02-02T21:14:08;13.47;;;6.83;;
74180;SDS011;62544;50.826;14.354;2023-02-02T21:18:24;13.98;;;6.82;;
74180;SDS011;62544;50.826;14.354;2023-02-02T21:22:40;13.98;;;6.82;;
74180;SDS011;62544;50.826;14.354;2023-02-02T21:26:56;13.98;;;6.82;;
74180;SDS011;62544;50.826;14.354;2023-02-02T21:31:13;17.36;;;8.09;;
74180;SDS011;62544;50.826;14.354;2023-02-02T21:35:28;17.36;;;8.09;;
74180;SDS011;62544;50.826;14.354;2023-02-02T21:39:44;19.51;;;7.90;;
74180;SDS011;62544;50.826;14.354;2023-02-02T21:44:01;19.51;;;7.90;;
74180;SDS011;62544;50.826;14.354;2023-02-02T21:48:20;19.89;;;9.72;;
74180;SDS011;62544;50.826;14.354;2023-02-02T21:52:32;19.89;;;9.72;;
74180;SDS011;62544;50.826;14.354;2023-02-02T21:56:48;19.89;;;9.72;;
74180;SDS011;62544;50.826;14.354;2023-02-02T22:01:20;29.58;;;12.71;;
74180;SDS011;62544;50.826;14.354;2023-02-02T22:05:33;29.58;;;12.71;;
74180;SDS011;62544;50.826;14.354;2023-02-02T22:09:43;19.26;;;9.13;;
74180;SDS011;62544;50.826;14.354;2023-02-02T22:13:52;19.26;;;9.13;;
74180;SDS011;62544;50.826;14.354;2023-02-02T22:18:12;29.27;;;14.52;;
74180;SDS011;62544;50.826;14.354;2023-02-02T22:22:25;29.27;;;14.52;;
74180;SDS011;62544;50.826;14.354;2023-02-02T22:26:40;29.27;;;14.52;;
74180;SDS011;62544;50.826;14.354;2023-02-02T22:30:57;22.97;;;9.80;;
74180;SDS011;62544;50.826;14.354;2023-02-02T22:35:12;22.97;;;9.80;;
74180;SDS011;62544;50.826;14.354;2023-02-02T22:39:28;22.97;;;9.80;;
74180;SDS011;62544;50.826;14.354;2023-02-02T22:43:44;22.97;;;9.80;;
74180;SDS011;62544;50.826;14.354;2023-02-02T22:48:00;12.58;;;6.69;;
74180;SDS011;62544;50.826;14.354;2023-02-02T22:52:16;12.58;;;6.69;;
74180;SDS011;62544;50.826;14.354;2023-02-02T22:56:32;12.58;;;6.69;;
74180;SDS011;62544;50.826;14.354;2023-02-02T23:00:48;16.99;;;7.97;;
74180;SDS011;62544;50.826;14.354;2023-02-02T23:05:05;16.99;;;7.97;;
74180;SDS011;62544;50.826;14.354;2023-02-02T23:09:20;20.54;;;9.27;;
74180;SDS011;62544;50.826;14.354;2023-02-02T23:13:36;20.54;;;9.27;;
74180;SDS011;62544;50.826;14.354;2023-02-02T23:17:52;17.16;;;7.95;;
74180;SDS011;62544;50.826;14.354;2023-02-02T23:22:08;17.16;;;7.95;;
74180;SDS011;62544;50.826;14.354;2023-02-02T23:26:24;17.16;;;7.95;;
74180;SDS011;62544;50.826;14.354;2023-02-02T23:30:40;21.76;;;9.16;;
74180;SDS011;62544;50.826;14.354;2023-02-02T23:34:56;21.76;;;9.16;;
74180;SDS011;62544;50.826;14.354;2023-02-02T23:39:12;31.60;;;10.47;;
74180;SDS011;62544;50.826;14.354;2023-02-02T23:43:28;31.60;;;10.47;;
74180;SDS011;62544;50.826;14.354;2023-02-02T23:47:44;19.32;;;7.93;;
74180;SDS011;62544;50.826;14.354;2023-02-02T23:52:00;19.32;;;7.93;;
74180;SDS011;62544;50.826;14.354;2023-02-02T23:56:16;19.32;;;7.93;;
